Ocean Navigator — WSC2552 — position and weather

sailwx.info

Track history (hours):
 
Tides and Currents Weather Stations Pressure Air Temp Water Temp Dewpoint Dewpoint Depression Visibility Wind Speed Wind Dir Waves Ship Positions

Ocean Navigator

Owner: OCEAN NAVIGATOR INC, SEATTLE, WA. More information available from US FCC via Universal Licensing System and Coast Guard Vessel Documentation Center.

Last reported at 2016-Feb-10 23:33 UTC. Time now 2016-Feb-11 00:25 UTC.
Position N 49°02' W 123°23'.

Type: Tow > 200 m length. MMSI: 366358000.

Date/timePositionNaut miles runAvg speedWind from/ knotsBaromVisibWave heightAir tempDewpointWater temp
2016-Feb-10 23:33N 49°02' W 123°23'0 0.0
2016-Feb-10 22:33N 49°02' W 123°23'0 0.0
2016-Feb-10 21:33N 49°02' W 123°23'0 0.0
2016-Feb-10 20:33N 49°02' W 123°23'0 0.0
2016-Feb-10 19:33N 49°02' W 123°23'0 0.0
2016-Feb-10 18:33N 49°02' W 123°23'0 0.0
2016-Feb-10 17:33N 49°02' W 123°23'0 0.0
2016-Feb-10 16:33N 49°02' W 123°23'0 0.0
2016-Feb-10 15:34N 49°02' W 123°23'0 0.0
2016-Feb-10 14:34N 49°02' W 123°23'0 0.0
2016-Feb-10 13:33N 49°02' W 123°23'0 0.0
2016-Feb-10 12:34N 49°02' W 123°23'0 0.0
2016-Feb-10 11:34N 49°02' W 123°23'0 0.0
2016-Feb-10 10:34N 49°02' W 123°23'0 0.0
2016-Feb-10 09:34N 49°02' W 123°23'0 0.0
2016-Feb-10 08:34N 49°02' W 123°23'0 0.0
2016-Feb-10 07:34N 49°02' W 123°23'0 0.0
2016-Feb-10 06:33N 49°02' W 123°23'0 0.0
2016-Feb-10 05:34N 49°02' W 123°23'0 0.0
2016-Feb-10 04:34N 49°02' W 123°23'0 0.0
2016-Feb-10 03:34N 49°02' W 123°23'0 0.0
2016-Feb-10 02:34N 49°02' W 123°23'0 0.0
2016-Feb-10 01:34N 49°02' W 123°23'0 0.0
2016-Feb-10 00:34N 49°02' W 123°23'0 0.0
2016-Feb-09 23:34N 49°02' W 123°23'0 0.0
2016-Feb-09 22:34N 49°02' W 123°23'0 0.0
2016-Feb-09 21:34N 49°02' W 123°23'0 0.0
2016-Feb-09 20:33N 49°02' W 123°23'0 0.0
2016-Feb-09 19:34N 49°02' W 123°23'0 0.0
2016-Feb-09 18:34N 49°02' W 123°23'0 0.0
2016-Feb-09 17:34N 49°02' W 123°23'0 0.0
2016-Feb-09 16:34N 49°02' W 123°23'0 0.0
2016-Feb-09 15:34N 49°02' W 123°23'0 0.0
2016-Feb-09 14:33N 49°02' W 123°23'0 0.0
2016-Feb-09 13:34N 49°02' W 123°23'0 0.0
2016-Feb-09 12:34N 49°02' W 123°23'0 0.0
2016-Feb-09 11:34N 49°02' W 123°23'0 0.0
2016-Feb-09 10:34N 49°02' W 123°23'0 0.0
2016-Feb-09 09:34N 49°02' W 123°23'0 0.0
2016-Feb-09 08:34N 49°02' W 123°23'0 0.0
2016-Feb-09 07:34N 49°02' W 123°23'0 0.0
2016-Feb-09 06:33N 49°02' W 123°23'0 0.0
2016-Feb-09 05:33N 49°02' W 123°23'10 9.8
2016-Feb-09 04:33N 49°09' W 123°33'1110.6
2016-Feb-09 03:33N 49°16' W 123°46'1010.2
2016-Feb-09 02:33N 49°22' W 123°57'10 9.9
2016-Feb-09 01:33N 49°29' W 124°09'9 9.4
2016-Feb-09 00:33N 49°34' W 124°21'9 9.5
2016-Feb-08 23:33N 49°39' W 124°34'9 9.2
2016-Feb-08 22:33N 49°44' W 124°45'10 9.6
2016-Feb-08 21:33N 49°50' W 124°56'10 9.6
2016-Feb-08 20:33N 49°57' W 125°08'1010.3
2016-Feb-08 19:33N 50°05' W 125°16'8 8.0
2016-Feb-08 18:33N 50°12' W 125°23'3 2.7
2016-Feb-08 17:33N 50°15' W 125°23'2 1.9
2016-Feb-08 16:33N 50°17' W 125°24'2 1.6
2016-Feb-08 15:29N 50°18' W 125°25'1 1.3
2016-Feb-08 14:33N 50°17' W 125°24'1 1.0
2016-Feb-08 13:33N 50°16' W 125°24'72 7.0
2016-Feb-08 03:14N 50°45' W 127°08'3 4.4
2016-Feb-08 02:31N 50°47' W 127°11'4 4.3
2016-Feb-08 01:31N 50°50' W 127°16'4 4.0
2016-Feb-08 00:33N 50°53' W 127°21'4 4.1
2016-Feb-07 23:33N 50°55' W 127°26'5 5.4
2016-Feb-07 22:33N 50°59' W 127°33'5 5.2
2016-Feb-07 21:32N 51°02' W 127°38'5 5.1
2016-Feb-07 20:32N 51°06' W 127°45'54 6.7
2016-Feb-07 12:32N 51°59' W 127°56'10 7.0
2016-Feb-07 11:09N 52°06' W 128°08'5 9.0
2016-Feb-07 10:33N 52°11' W 128°06'  
Track history (hours):
 
Tides and Currents Weather Stations Pressure Air Temp Water Temp Dewpoint Dewpoint Depression Visibility Wind Speed Wind Dir Waves Ship Positions

Ocean Navigator

Owner: OCEAN NAVIGATOR INC, SEATTLE, WA. More information available from US FCC via Universal Licensing System and Coast Guard Vessel Documentation Center.

Last reported at 2016-Feb-10 23:33 UTC. Time now 2016-Feb-11 00:25 UTC.
Position N 49°02' W 123°23'.

Type: Tow > 200 m length. MMSI: 366358000.

Date/timePositionNaut miles runAvg speedWind from/ knotsBaromVisibWave heightAir tempDewpointWater temp
2016-Feb-10 23:33N 49°02' W 123°23'0 0.0
2016-Feb-10 22:33N 49°02' W 123°23'0 0.0
2016-Feb-10 21:33N 49°02' W 123°23'0 0.0
2016-Feb-10 20:33N 49°02' W 123°23'0 0.0
2016-Feb-10 19:33N 49°02' W 123°23'0 0.0
2016-Feb-10 18:33N 49°02' W 123°23'0 0.0
2016-Feb-10 17:33N 49°02' W 123°23'0 0.0
2016-Feb-10 16:33N 49°02' W 123°23'0 0.0
2016-Feb-10 15:34N 49°02' W 123°23'0 0.0
2016-Feb-10 14:34N 49°02' W 123°23'0 0.0
2016-Feb-10 13:33N 49°02' W 123°23'0 0.0
2016-Feb-10 12:34N 49°02' W 123°23'0 0.0
2016-Feb-10 11:34N 49°02' W 123°23'0 0.0
2016-Feb-10 10:34N 49°02' W 123°23'0 0.0
2016-Feb-10 09:34N 49°02' W 123°23'0 0.0
2016-Feb-10 08:34N 49°02' W 123°23'0 0.0
2016-Feb-10 07:34N 49°02' W 123°23'0 0.0
2016-Feb-10 06:33N 49°02' W 123°23'0 0.0
2016-Feb-10 05:34N 49°02' W 123°23'0 0.0
2016-Feb-10 04:34N 49°02' W 123°23'0 0.0
2016-Feb-10 03:34N 49°02' W 123°23'0 0.0
2016-Feb-10 02:34N 49°02' W 123°23'0 0.0
2016-Feb-10 01:34N 49°02' W 123°23'0 0.0
2016-Feb-10 00:34N 49°02' W 123°23'0 0.0
2016-Feb-09 23:34N 49°02' W 123°23'0 0.0
2016-Feb-09 22:34N 49°02' W 123°23'0 0.0
2016-Feb-09 21:34N 49°02' W 123°23'0 0.0
2016-Feb-09 20:33N 49°02' W 123°23'0 0.0
2016-Feb-09 19:34N 49°02' W 123°23'0 0.0
2016-Feb-09 18:34N 49°02' W 123°23'0 0.0
2016-Feb-09 17:34N 49°02' W 123°23'0 0.0
2016-Feb-09 16:34N 49°02' W 123°23'0 0.0
2016-Feb-09 15:34N 49°02' W 123°23'0 0.0
2016-Feb-09 14:33N 49°02' W 123°23'0 0.0
2016-Feb-09 13:34N 49°02' W 123°23'0 0.0
2016-Feb-09 12:34N 49°02' W 123°23'0 0.0
2016-Feb-09 11:34N 49°02' W 123°23'0 0.0
2016-Feb-09 10:34N 49°02' W 123°23'0 0.0
2016-Feb-09 09:34N 49°02' W 123°23'0 0.0
2016-Feb-09 08:34N 49°02' W 123°23'0 0.0
2016-Feb-09 07:34N 49°02' W 123°23'0 0.0
2016-Feb-09 06:33N 49°02' W 123°23'0 0.0
2016-Feb-09 05:33N 49°02' W 123°23'10 9.8
2016-Feb-09 04:33N 49°09' W 123°33'1110.6
2016-Feb-09 03:33N 49°16' W 123°46'1010.2
2016-Feb-09 02:33N 49°22' W 123°57'10 9.9
2016-Feb-09 01:33N 49°29' W 124°09'9 9.4
2016-Feb-09 00:33N 49°34' W 124°21'9 9.5
2016-Feb-08 23:33N 49°39' W 124°34'9 9.2
2016-Feb-08 22:33N 49°44' W 124°45'10 9.6
2016-Feb-08 21:33N 49°50' W 124°56'10 9.6
2016-Feb-08 20:33N 49°57' W 125°08'1010.3
2016-Feb-08 19:33N 50°05' W 125°16'8 8.0
2016-Feb-08 18:33N 50°12' W 125°23'3 2.7
2016-Feb-08 17:33N 50°15' W 125°23'2 1.9
2016-Feb-08 16:33N 50°17' W 125°24'2 1.6
2016-Feb-08 15:29N 50°18' W 125°25'1 1.3
2016-Feb-08 14:33N 50°17' W 125°24'1 1.0
2016-Feb-08 13:33N 50°16' W 125°24'72 7.0
2016-Feb-08 03:14N 50°45' W 127°08'3 4.4
2016-Feb-08 02:31N 50°47' W 127°11'4 4.3
2016-Feb-08 01:31N 50°50' W 127°16'4 4.0
2016-Feb-08 00:33N 50°53' W 127°21'4 4.1
2016-Feb-07 23:33N 50°55' W 127°26'5 5.4
2016-Feb-07 22:33N 50°59' W 127°33'5 5.2
2016-Feb-07 21:32N 51°02' W 127°38'5 5.1
2016-Feb-07 20:32N 51°06' W 127°45'54 6.7
2016-Feb-07 12:32N 51°59' W 127°56'10 7.0
2016-Feb-07 11:09N 52°06' W 128°08'5 9.0
2016-Feb-07 10:33N 52°11' W 128°06'  

Dump ship's entire track history